sensor_id;sensor_type;location;lat;lon;timestamp;pressure;altitude;pressure_sealevel;temperature;humidity
35226;BME280;21813;49.686;21.766;2023-01-16T00:05:48;97679.28;;;2.39;100.00
35226;BME280;21813;49.686;21.766;2023-01-16T00:08:22;97674.88;;;2.41;100.00
35226;BME280;21813;49.686;21.766;2023-01-16T00:10:49;97672.22;;;2.43;100.00
35226;BME280;21813;49.686;21.766;2023-01-16T00:13:15;97666.31;;;2.41;100.00
35226;BME280;21813;49.686;21.766;2023-01-16T00:15:51;97675.53;;;2.45;100.00
35226;BME280;21813;49.686;21.766;2023-01-16T00:18:18;97667.81;;;2.45;100.00
35226;BME280;21813;49.686;21.766;2023-01-16T00:20:46;97664.31;;;2.46;100.00
35226;BME280;21813;49.686;21.766;2023-01-16T00:23:20;97670.28;;;2.46;100.00
35226;BME280;21813;49.686;21.766;2023-01-16T00:40:19;97655.88;;;2.44;100.00
35226;BME280;21813;49.686;21.766;2023-01-16T00:42:45;97649.81;;;2.45;100.00
35226;BME280;21813;49.686;21.766;2023-01-16T00:45:12;97645.59;;;2.44;100.00
35226;BME280;21813;49.686;21.766;2023-01-16T00:47:38;97648.16;;;2.44;100.00
35226;BME280;21813;49.686;21.766;2023-01-16T00:50:04;97648.03;;;2.45;100.00
35226;BME280;21813;49.686;21.766;2023-01-16T00:52:30;97637.13;;;2.42;100.00
35226;BME280;21813;49.686;21.766;2023-01-16T00:54:57;97638.97;;;2.40;100.00
35226;BME280;21813;49.686;21.766;2023-01-16T00:57:22;97640.44;;;2.44;100.00
35226;BME280;21813;49.686;21.766;2023-01-16T00:59:49;97634.47;;;2.43;100.00
35226;BME280;21813;49.686;21.766;2023-01-16T01:02:14;97629.31;;;2.43;100.00
35226;BME280;21813;49.686;21.766;2023-01-16T01:04:41;97630.31;;;2.41;100.00
35226;BME280;21813;49.686;21.766;2023-01-16T01:07:07;97631.16;;;2.41;100.00
35226;BME280;21813;49.686;21.766;2023-01-16T01:09:34;97629.41;;;2.42;100.00
35226;BME280;21813;49.686;21.766;2023-01-16T01:12:00;97618.22;;;2.43;100.00
35226;BME280;21813;49.686;21.766;2023-01-16T01:14:27;97627.75;;;2.41;100.00
35226;BME280;21813;49.686;21.766;2023-01-16T01:16:53;97631.06;;;2.43;100.00
35226;BME280;21813;49.686;21.766;2023-01-16T01:19:20;97628.50;;;2.43;100.00
35226;BME280;21813;49.686;21.766;2023-01-16T01:21:46;97628.41;;;2.44;100.00
35226;BME280;21813;49.686;21.766;2023-01-16T01:24:13;97632.63;;;2.45;100.00
35226;BME280;21813;49.686;21.766;2023-01-16T01:26:42;97630.88;;;2.46;100.00
35226;BME280;21813;49.686;21.766;2023-01-16T01:29:10;97626.84;;;2.42;100.00
35226;BME280;21813;49.686;21.766;2023-01-16T01:31:35;97624.81;;;2.47;100.00
35226;BME280;21813;49.686;21.766;2023-01-16T01:34:24;97623.53;;;2.40;100.00
35226;BME280;21813;49.686;21.766;2023-01-16T01:37:20;97622.59;;;2.41;100.00
35226;BME280;21813;49.686;21.766;2023-01-16T01:40:16;97614.72;;;2.44;100.00
35226;BME280;21813;49.686;21.766;2023-01-16T01:42:42;97609.38;;;2.47;100.00
35226;BME280;21813;49.686;21.766;2023-01-16T01:45:23;97604.25;;;2.47;100.00
35226;BME280;21813;49.686;21.766;2023-01-16T01:51:32;97595.69;;;2.46;100.00
35226;BME280;21813;49.686;21.766;2023-01-16T01:57:31;97589.66;;;2.47;100.00
35226;BME280;21813;49.686;21.766;2023-01-16T02:00:10;97588.63;;;2.50;100.00
35226;BME280;21813;49.686;21.766;2023-01-16T02:02:44;97576.72;;;2.49;100.00
35226;BME280;21813;49.686;21.766;2023-01-16T02:05:12;97572.66;;;2.45;100.00
35226;BME280;21813;49.686;21.766;2023-01-16T02:07:42;97562.81;;;2.37;100.00
35226;BME280;21813;49.686;21.766;2023-01-16T02:14:21;97555.84;;;2.39;100.00
35226;BME280;21813;49.686;21.766;2023-01-16T02:17:26;97561.84;;;2.40;100.00
35226;BME280;21813;49.686;21.766;2023-01-16T02:20:25;97561.84;;;2.40;100.00
35226;BME280;21813;49.686;21.766;2023-01-16T02:23:14;97554.28;;;2.37;100.00
35226;BME280;21813;49.686;21.766;2023-01-16T02:28:58;97529.69;;;2.33;100.00
35226;BME280;21813;49.686;21.766;2023-01-16T02:34:54;97535.09;;;2.28;100.00
35226;BME280;21813;49.686;21.766;2023-01-16T02:37:55;97536.84;;;2.28;100.00
35226;BME280;21813;49.686;21.766;2023-01-16T02:45:47;97536.00;;;2.27;100.00
35226;BME280;21813;49.686;21.766;2023-01-16T02:48:30;97532.09;;;2.21;100.00
35226;BME280;21813;49.686;21.766;2023-01-16T02:51:10;97530.97;;;2.26;100.00
35226;BME280;21813;49.686;21.766;2023-01-16T02:53:55;97519.31;;;2.20;100.00
35226;BME280;21813;49.686;21.766;2023-01-16T02:56:29;97524.38;;;2.21;100.00
35226;BME280;21813;49.686;21.766;2023-01-16T02:58:57;97531.88;;;2.25;100.00
35226;BME280;21813;49.686;21.766;2023-01-16T03:01:23;97520.31;;;2.17;100.00
35226;BME280;21813;49.686;21.766;2023-01-16T03:11:25;97522.97;;;2.16;100.00
35226;BME280;21813;49.686;21.766;2023-01-16T03:14:24;97525.28;;;2.20;100.00
35226;BME280;21813;49.686;21.766;2023-01-16T03:17:08;97533.00;;;2.20;100.00
35226;BME280;21813;49.686;21.766;2023-01-16T03:25:05;97537.78;;;2.27;100.00
35226;BME280;21813;49.686;21.766;2023-01-16T03:30:35;97535.38;;;2.23;100.00
35226;BME280;21813;49.686;21.766;2023-01-16T03:33:31;97533.72;;;2.22;100.00
35226;BME280;21813;49.686;21.766;2023-01-16T03:35:59;97536.28;;;2.22;100.00
35226;BME280;21813;49.686;21.766;2023-01-16T03:38:31;97536.13;;;2.26;100.00
35226;BME280;21813;49.686;21.766;2023-01-16T03:41:02;97536.84;;;2.28;100.00
35226;BME280;21813;49.686;21.766;2023-01-16T03:43:38;97533.53;;;2.26;100.00
35226;BME280;21813;49.686;21.766;2023-01-16T03:46:09;97521.81;;;2.21;100.00
35226;BME280;21813;49.686;21.766;2023-01-16T03:48:48;97531.88;;;2.25;100.00
35226;BME280;21813;49.686;21.766;2023-01-16T03:51:23;97523.63;;;2.19;100.00
35226;BME280;21813;49.686;21.766;2023-01-16T03:54:09;97518.47;;;2.19;100.00
35226;BME280;21813;49.686;21.766;2023-01-16T03:56:55;97522.88;;;2.17;100.00
35226;BME280;21813;49.686;21.766;2023-01-16T03:59:25;97511.31;;;2.10;100.00
35226;BME280;21813;49.686;21.766;2023-01-16T04:04:29;97512.22;;;2.09;100.00
35226;BME280;21813;49.686;21.766;2023-01-16T04:07:04;97515.00;;;2.06;100.00
35226;BME280;21813;49.686;21.766;2023-01-16T04:09:40;97519.38;;;2.04;100.00
35226;BME280;21813;49.686;21.766;2023-01-16T04:12:09;97512.78;;;2.00;100.00
35226;BME280;21813;49.686;21.766;2023-01-16T04:14:37;97514.63;;;1.98;100.00
35226;BME280;21813;49.686;21.766;2023-01-16T04:17:05;97511.31;;;1.96;100.00
35226;BME280;21813;49.686;21.766;2023-01-16T04:19:35;97516.44;;;1.96;100.00
35226;BME280;21813;49.686;21.766;2023-01-16T04:22:07;97514.78;;;1.95;100.00
35226;BME280;21813;49.686;21.766;2023-01-16T04:24:33;97513.31;;;1.91;100.00
35226;BME280;21813;49.686;21.766;2023-01-16T04:27:00;97506.72;;;1.87;100.00
35226;BME280;21813;49.686;21.766;2023-01-16T04:29:26;97520.13;;;1.92;100.00
35226;BME280;21813;49.686;21.766;2023-01-16T04:31:52;97506.72;;;1.87;100.00
35226;BME280;21813;49.686;21.766;2023-01-16T04:34:22;97510.94;;;1.88;100.00
35226;BME280;21813;49.686;21.766;2023-01-16T04:36:48;97514.97;;;1.92;100.00
35226;BME280;21813;49.686;21.766;2023-01-16T04:39:14;97514.06;;;1.93;100.00
35226;BME280;21813;49.686;21.766;2023-01-16T04:41:41;97492.97;;;1.88;100.00
35226;BME280;21813;49.686;21.766;2023-01-16T04:44:09;97500.31;;;1.94;100.00
35226;BME280;21813;49.686;21.766;2023-01-16T04:46:36;97499.38;;;1.95;100.00
35226;BME280;21813;49.686;21.766;2023-01-16T04:49:04;97501.94;;;1.95;100.00
35226;BME280;21813;49.686;21.766;2023-01-16T04:51:32;97489.28;;;1.92;100.00
35226;BME280;21813;49.686;21.766;2023-01-16T04:53:58;97488.38;;;1.93;100.00
35226;BME280;21813;49.686;21.766;2023-01-16T04:56:24;97485.13;;;1.90;100.00
35226;BME280;21813;49.686;21.766;2023-01-16T04:58:50;97479.09;;;1.91;100.00
35226;BME280;21813;49.686;21.766;2023-01-16T05:01:17;97477.34;;;1.91;100.00
35226;BME280;21813;49.686;21.766;2023-01-16T05:03:43;97474.78;;;1.91;100.00
35226;BME280;21813;49.686;21.766;2023-01-16T05:06:09;97474.06;;;1.89;100.00
35226;BME280;21813;49.686;21.766;2023-01-16T05:08:35;97476.44;;;1.92;100.00
35226;BME280;21813;49.686;21.766;2023-01-16T05:11:02;97487.63;;;1.91;100.00
35226;BME280;21813;49.686;21.766;2023-01-16T05:13:28;97475.97;;;1.86;100.00
35226;BME280;21813;49.686;21.766;2023-01-16T05:15:55;97483.31;;;1.92;100.00
35226;BME280;21813;49.686;21.766;2023-01-16T05:18:21;97472.22;;;1.91;100.00
35226;BME280;21813;49.686;21.766;2023-01-16T05:20:48;97467.28;;;1.88;100.00
35226;BME280;21813;49.686;21.766;2023-01-16T05:23:14;97464.69;;;1.88;100.00
35226;BME280;21813;49.686;21.766;2023-01-16T05:25:42;97456.09;;;1.89;100.00
35226;BME280;21813;49.686;21.766;2023-01-16T05:28:07;97444.88;;;1.90;100.00
35226;BME280;21813;49.686;21.766;2023-01-16T05:30:34;97427.06;;;1.87;100.00
35226;BME280;21813;49.686;21.766;2023-01-16T05:32:59;97438.91;;;1.90;100.00
35226;BME280;21813;49.686;21.766;2023-01-16T05:35:30;97429.44;;;1.90;100.00
35226;BME280;21813;49.686;21.766;2023-01-16T05:37:56;97425.97;;;1.91;100.00
35226;BME280;21813;49.686;21.766;2023-01-16T05:40:24;97429.63;;;1.87;100.00
35226;BME280;21813;49.686;21.766;2023-01-16T05:42:49;97443.50;;;1.85;100.00
35226;BME280;21813;49.686;21.766;2023-01-16T05:45:16;97445.25;;;1.84;100.00
35226;BME280;21813;49.686;21.766;2023-01-16T05:47:43;97441.94;;;1.82;100.00
35226;BME280;21813;49.686;21.766;2023-01-16T05:50:09;97439.84;;;1.89;100.00
35226;BME280;21813;49.686;21.766;2023-01-16T05:52:35;97452.69;;;1.89;100.00
35226;BME280;21813;49.686;21.766;2023-01-16T05:55:02;97447.44;;;1.90;100.00
35226;BME280;21813;49.686;21.766;2023-01-16T05:57:33;97453.31;;;1.92;100.00
35226;BME280;21813;49.686;21.766;2023-01-16T06:00:00;97448.81;;;1.96;100.00
35226;BME280;21813;49.686;21.766;2023-01-16T06:02:25;97441.09;;;1.96;100.00
35226;BME280;21813;49.686;21.766;2023-01-16T06:04:53;97432.69;;;1.94;100.00
35226;BME280;21813;49.686;21.766;2023-01-16T06:07:18;97433.41;;;1.96;100.00
35226;BME280;21813;49.686;21.766;2023-01-16T06:09:44;97424.84;;;1.95;100.00
35226;BME280;21813;49.686;21.766;2023-01-16T06:12:17;97423.94;;;1.96;100.00
35226;BME280;21813;49.686;21.766;2023-01-16T06:14:44;97427.44;;;1.95;100.00
35226;BME280;21813;49.686;21.766;2023-01-16T06:17:11;97431.75;;;1.95;100.00
35226;BME280;21813;49.686;21.766;2023-01-16T06:19:48;97430.81;;;1.96;100.00
35226;BME280;21813;49.686;21.766;2023-01-16T06:22:14;97422.50;;;1.92;100.00
35226;BME280;21813;49.686;21.766;2023-01-16T06:24:40;97433.41;;;1.96;100.00
35226;BME280;21813;49.686;21.766;2023-01-16T06:27:05;97421.47;;;1.95;100.00
35226;BME280;21813;49.686;21.766;2023-01-16T06:29:32;97422.28;;;1.95;100.00
35226;BME280;21813;49.686;21.766;2023-01-16T06:31:58;97424.78;;;1.97;100.00
35226;BME280;21813;49.686;21.766;2023-01-16T06:34:48;97411.28;;;1.93;100.00
35226;BME280;21813;49.686;21.766;2023-01-16T06:37:29;97421.28;;;1.98;100.00
35226;BME280;21813;49.686;21.766;2023-01-16T06:40:33;97420.28;;;2.00;100.00
35226;BME280;21813;49.686;21.766;2023-01-16T06:46:35;97433.88;;;2.02;100.00
35226;BME280;21813;49.686;21.766;2023-01-16T06:49:23;97428.25;;;1.96;100.00
35226;BME280;21813;49.686;21.766;2023-01-16T06:52:17;97430.38;;;2.03;100.00
35226;BME280;21813;49.686;21.766;2023-01-16T06:54:44;97422.69;;;2.03;100.00
35226;BME280;21813;49.686;21.766;2023-01-16T06:57:10;97422.56;;;2.05;100.00
35226;BME280;21813;49.686;21.766;2023-01-16T06:59:37;97431.72;;;2.09;100.00
35226;BME280;21813;49.686;21.766;2023-01-16T07:02:03;97418.06;;;2.08;100.00
35226;BME280;21813;49.686;21.766;2023-01-16T07:04:30;97420.53;;;2.10;100.00
35226;BME280;21813;49.686;21.766;2023-01-16T07:06:55;97419.72;;;2.09;100.00
35226;BME280;21813;49.686;21.766;2023-01-16T07:09:22;97414.50;;;2.11;100.00
35226;BME280;21813;49.686;21.766;2023-01-16T07:11:53;97412.53;;;2.14;100.00
35226;BME280;21813;49.686;21.766;2023-01-16T07:14:22;97412.53;;;2.14;100.00
35226;BME280;21813;49.686;21.766;2023-01-16T07:17:10;97397.97;;;2.15;100.00
35226;BME280;21813;49.686;21.766;2023-01-16T07:19:55;97392.53;;;2.19;100.00
35226;BME280;21813;49.686;21.766;2023-01-16T07:22:40;97388.31;;;2.18;100.00
35226;BME280;21813;49.686;21.766;2023-01-16T07:25:26;97389.03;;;2.20;100.00
35226;BME280;21813;49.686;21.766;2023-01-16T07:27:54;97389.75;;;2.22;100.00
35226;BME280;21813;49.686;21.766;2023-01-16T07:30:22;97386.28;;;2.23;100.00
35226;BME280;21813;49.686;21.766;2023-01-16T07:32:48;97393.06;;;2.25;100.00
35226;BME280;21813;49.686;21.766;2023-01-16T07:35:15;97383.63;;;2.25;100.00
35226;BME280;21813;49.686;21.766;2023-01-16T07:37:43;97383.53;;;2.27;100.00
35226;BME280;21813;49.686;21.766;2023-01-16T07:40:12;97384.25;;;2.29;100.00
35226;BME280;21813;49.686;21.766;2023-01-16T07:42:39;97384.78;;;2.34;100.00
35226;BME280;21813;49.686;21.766;2023-01-16T07:45:06;97382.22;;;2.34;100.00
35226;BME280;21813;49.686;21.766;2023-01-16T07:47:35;97379.44;;;2.37;100.00
35226;BME280;21813;49.686;21.766;2023-01-16T07:50:04;97382.56;;;2.42;100.00
35226;BME280;21813;49.686;21.766;2023-01-16T07:52:30;97371.66;;;2.38;100.00
35226;BME280;21813;49.686;21.766;2023-01-16T07:54:57;97381.25;;;2.49;100.00
35226;BME280;21813;49.686;21.766;2023-01-16T07:57:23;97363.44;;;2.46;100.00
35226;BME280;21813;49.686;21.766;2023-01-16T07:59:51;97367.47;;;2.50;100.00
35226;BME280;21813;49.686;21.766;2023-01-16T08:02:17;97365.84;;;2.49;100.00
35226;BME280;21813;49.686;21.766;2023-01-16T08:04:44;97368.94;;;2.54;100.00
35226;BME280;21813;49.686;21.766;2023-01-16T08:07:09;97365.41;;;2.55;100.00
35226;BME280;21813;49.686;21.766;2023-01-16T08:09:36;97364.72;;;2.53;100.00
35226;BME280;21813;49.686;21.766;2023-01-16T08:12:02;97367.06;;;2.56;100.00
35226;BME280;21813;49.686;21.766;2023-01-16T08:14:28;97353.69;;;2.51;100.00
35226;BME280;21813;49.686;21.766;2023-01-16T08:16:54;97363.50;;;2.58;100.00
35226;BME280;21813;49.686;21.766;2023-01-16T08:19:20;97348.78;;;2.60;100.00
35226;BME280;21813;49.686;21.766;2023-01-16T08:21:46;97344.75;;;2.56;100.00
35226;BME280;21813;49.686;21.766;2023-01-16T08:24:12;97338.78;;;2.56;100.00
35226;BME280;21813;49.686;21.766;2023-01-16T08:26:40;97332.94;;;2.54;100.00
35226;BME280;21813;49.686;21.766;2023-01-16T08:29:09;97327.97;;;2.51;100.00
35226;BME280;21813;49.686;21.766;2023-01-16T08:31:34;97330.44;;;2.52;100.00
35226;BME280;21813;49.686;21.766;2023-01-16T08:34:00;97317.69;;;2.51;100.00
35226;BME280;21813;49.686;21.766;2023-01-16T08:36:26;97314.19;;;2.52;100.00
35226;BME280;21813;49.686;21.766;2023-01-16T08:38:52;97316.56;;;2.55;100.00
35226;BME280;21813;49.686;21.766;2023-01-16T08:41:18;97321.59;;;2.56;100.00
35226;BME280;21813;49.686;21.766;2023-01-16T08:44:03;97336.75;;;2.61;100.00
35226;BME280;21813;49.686;21.766;2023-01-16T08:46:56;97325.34;;;2.65;100.00
35226;BME280;21813;49.686;21.766;2023-01-16T08:49:41;97328.53;;;2.68;100.00
35226;BME280;21813;49.686;21.766;2023-01-16T08:52:28;97333.28;;;2.75;100.00
35226;BME280;21813;49.686;21.766;2023-01-16T08:54:57;97333.19;;;2.76;100.00
35226;BME280;21813;49.686;21.766;2023-01-16T08:57:23;97332.06;;;2.80;100.00
35226;BME280;21813;49.686;21.766;2023-01-16T08:59:50;97317.75;;;2.76;100.00
35226;BME280;21813;49.686;21.766;2023-01-16T09:02:15;97320.94;;;2.80;100.00
35226;BME280;21813;49.686;21.766;2023-01-16T09:04:42;97318.38;;;2.80;100.00
35226;BME280;21813;49.686;21.766;2023-01-16T09:07:09;97309.72;;;2.81;100.00
35226;BME280;21813;49.686;21.766;2023-01-16T09:09:35;97313.75;;;2.85;100.00
35226;BME280;21813;49.686;21.766;2023-01-16T09:12:01;97295.75;;;2.85;100.00
35226;BME280;21813;49.686;21.766;2023-01-16T09:14:45;97295.66;;;2.86;100.00
35226;BME280;21813;49.686;21.766;2023-01-16T09:17:12;97290.28;;;2.89;100.00
35226;BME280;21813;49.686;21.766;2023-01-16T09:19:38;97289.16;;;2.93;100.00
35226;BME280;21813;49.686;21.766;2023-01-16T09:22:05;97287.94;;;2.99;100.00
35226;BME280;21813;49.686;21.766;2023-01-16T09:24:32;97280.91;;;3.01;100.00
35226;BME280;21813;49.686;21.766;2023-01-16T09:26:59;97274.75;;;3.03;100.00
35226;BME280;21813;49.686;21.766;2023-01-16T09:29:25;97268.56;;;3.06;100.00
35226;BME280;21813;49.686;21.766;2023-01-16T09:31:52;97267.53;;;3.08;100.00
35226;BME280;21813;49.686;21.766;2023-01-16T09:34:18;97258.91;;;3.09;100.00
35226;BME280;21813;49.686;21.766;2023-01-16T09:36:44;97244.91;;;3.14;100.00
35226;BME280;21813;49.686;21.766;2023-01-16T09:39:10;97245.72;;;3.14;100.00
35226;BME280;21813;49.686;21.766;2023-01-16T09:41:42;97234.59;;;3.14;100.00
35226;BME280;21813;49.686;21.766;2023-01-16T09:44:31;97232.72;;;3.16;100.00
35226;BME280;21813;49.686;21.766;2023-01-16T09:46:58;97223.34;;;3.15;100.00
35226;BME280;21813;49.686;21.766;2023-01-16T09:49:45;97210.38;;;3.16;100.00
35226;BME280;21813;49.686;21.766;2023-01-16T09:52:17;97211.13;;;3.18;100.00
35226;BME280;21813;49.686;21.766;2023-01-16T09:55:21;97205.13;;;3.18;100.00
35226;BME280;21813;49.686;21.766;2023-01-16T09:58:13;97201.66;;;3.19;100.00
35226;BME280;21813;49.686;21.766;2023-01-16T10:00:59;97190.28;;;3.21;100.00
35226;BME280;21813;49.686;21.766;2023-01-16T10:03:25;97182.47;;;3.23;100.00
35226;BME280;21813;49.686;21.766;2023-01-16T10:11:53;97181.25;;;3.28;100.00
35226;BME280;21813;49.686;21.766;2023-01-16T10:22:56;97154.94;;;3.36;100.00
35226;BME280;21813;49.686;21.766;2023-01-16T10:25:28;97146.56;;;3.45;100.00
35226;BME280;21813;49.686;21.766;2023-01-16T10:30:47;97152.47;;;3.34;100.00
35226;BME280;21813;49.686;21.766;2023-01-16T10:33:34;97139.22;;;3.28;100.00
35226;BME280;21813;49.686;21.766;2023-01-16T10:36:12;97142.28;;;3.33;100.00
35226;BME280;21813;49.686;21.766;2023-01-16T10:38:43;97135.50;;;3.32;100.00
35226;BME280;21813;49.686;21.766;2023-01-16T10:41:21;97127.03;;;3.30;100.00
35226;BME280;21813;49.686;21.766;2023-01-16T10:47:17;97106.66;;;3.27;100.00
35226;BME280;21813;49.686;21.766;2023-01-16T10:50:05;97092.16;;;3.26;100.00
35226;BME280;21813;49.686;21.766;2023-01-16T10:52:31;97078.25;;;3.28;100.00
35226;BME280;21813;49.686;21.766;2023-01-16T10:54:58;97068.53;;;3.32;100.00
35226;BME280;21813;49.686;21.766;2023-01-16T10:57:25;97072.03;;;3.31;100.00
35226;BME280;21813;49.686;21.766;2023-01-16T10:59:54;97057.09;;;3.36;100.00
35226;BME280;21813;49.686;21.766;2023-01-16T11:02:30;97063.16;;;3.35;100.00
35226;BME280;21813;49.686;21.766;2023-01-16T11:04:59;97049.59;;;3.33;100.00
35226;BME280;21813;49.686;21.766;2023-01-16T11:07:28;97044.44;;;3.33;100.00
35226;BME280;21813;49.686;21.766;2023-01-16T11:09:55;97034.16;;;3.33;100.00
35226;BME280;21813;49.686;21.766;2023-01-16T11:12:30;97035.06;;;3.32;100.00
35226;BME280;21813;49.686;21.766;2023-01-16T11:15:22;97031.34;;;3.36;100.00
35226;BME280;21813;49.686;21.766;2023-01-16T11:18:27;97014.25;;;3.35;100.00
35226;BME280;21813;49.686;21.766;2023-01-16T11:21:22;97018.47;;;3.36;100.00
35226;BME280;21813;49.686;21.766;2023-01-16T11:23:44;97016.13;;;3.33;100.00
35226;BME280;21813;49.686;21.766;2023-01-16T11:26:12;97005.09;;;3.31;100.00
35226;BME280;21813;49.686;21.766;2023-01-16T11:28:43;96987.41;;;3.26;100.00
35226;BME280;21813;49.686;21.766;2023-01-16T11:31:20;96997.72;;;3.26;100.00
35226;BME280;21813;49.686;21.766;2023-01-16T11:33:51;96994.22;;;3.27;100.00
35226;BME280;21813;49.686;21.766;2023-01-16T11:36:21;96985.66;;;3.27;100.00
35226;BME280;21813;49.686;21.766;2023-01-16T11:38:48;96970.91;;;3.29;100.00
35226;BME280;21813;49.686;21.766;2023-01-16T11:41:20;96964.50;;;3.34;100.00
35226;BME280;21813;49.686;21.766;2023-01-16T11:46:57;96950.00;;;3.44;100.00
35226;BME280;21813;49.686;21.766;2023-01-16T11:49:39;96933.72;;;3.44;100.00
35226;BME280;21813;49.686;21.766;2023-01-16T11:52:12;96930.22;;;3.45;100.00
35226;BME280;21813;49.686;21.766;2023-01-16T11:54:38;96927.41;;;3.48;100.00
35226;BME280;21813;49.686;21.766;2023-01-16T11:59:53;96917.59;;;3.53;100.00
35226;BME280;21813;49.686;21.766;2023-01-16T12:19:59;96873.69;;;3.54;100.00
35226;BME280;21813;49.686;21.766;2023-01-16T12:36:39;96866.53;;;3.47;100.00
35226;BME280;21813;49.686;21.766;2023-01-16T12:39:23;96859.88;;;3.44;100.00
35226;BME280;21813;49.686;21.766;2023-01-16T12:42:22;96865.84;;;3.45;100.00
35226;BME280;21813;49.686;21.766;2023-01-16T12:58:53;96856.38;;;3.45;100.00
35226;BME280;21813;49.686;21.766;2023-01-16T13:01:54;96853.66;;;3.47;100.00
35226;BME280;21813;49.686;21.766;2023-01-16T13:04:24;96856.13;;;3.48;100.00
35226;BME280;21813;49.686;21.766;2023-01-16T13:06:58;96853.56;;;3.48;100.00
35226;BME280;21813;49.686;21.766;2023-01-16T13:12:44;96838.22;;;3.47;100.00
35226;BME280;21813;49.686;21.766;2023-01-16T13:15:33;96833.78;;;3.49;100.00
35226;BME280;21813;49.686;21.766;2023-01-16T13:18:18;96826.03;;;3.49;100.00
35226;BME280;21813;49.686;21.766;2023-01-16T13:20:47;96823.47;;;3.49;100.00
35226;BME280;21813;49.686;21.766;2023-01-16T13:23:19;96816.47;;;3.51;100.00
35226;BME280;21813;49.686;21.766;2023-01-16T13:25:49;96818.06;;;3.52;100.00
35226;BME280;21813;49.686;21.766;2023-01-16T13:28:38;96804.28;;;3.53;100.00
35226;BME280;21813;49.686;21.766;2023-01-16T13:31:37;96787.16;;;3.52;100.00
35226;BME280;21813;49.686;21.766;2023-01-16T13:34:17;96784.84;;;3.60;100.00
35226;BME280;21813;49.686;21.766;2023-01-16T13:42:11;96771.81;;;3.62;100.00
35226;BME280;21813;49.686;21.766;2023-01-16T13:44:42;96774.53;;;3.60;100.00
35226;BME280;21813;49.686;21.766;2023-01-16T13:47:37;96778.03;;;3.59;100.00
35226;BME280;21813;49.686;21.766;2023-01-16T13:50:26;96768.69;;;3.58;100.00
35226;BME280;21813;49.686;21.766;2023-01-16T13:53:02;96768.56;;;3.60;100.00
35226;BME280;21813;49.686;21.766;2023-01-16T13:55:36;96770.31;;;3.59;100.00
35226;BME280;21813;49.686;21.766;2023-01-16T13:58:20;96762.59;;;3.59;100.00
35226;BME280;21813;49.686;21.766;2023-01-16T14:00:57;96767.75;;;3.59;100.00
35226;BME280;21813;49.686;21.766;2023-01-16T14:03:28;96765.06;;;3.61;100.00
35226;BME280;21813;49.686;21.766;2023-01-16T14:06:15;96751.56;;;3.57;100.00
35226;BME280;21813;49.686;21.766;2023-01-16T14:09:24;96752.28;;;3.59;100.00
35226;BME280;21813;49.686;21.766;2023-01-16T14:12:19;96747.03;;;3.61;100.00
35226;BME280;21813;49.686;21.766;2023-01-16T14:15:17;96738.69;;;3.57;100.00
35226;BME280;21813;49.686;21.766;2023-01-16T14:18:34;96724.88;;;3.58;100.00
35226;BME280;21813;49.686;21.766;2023-01-16T14:24:06;96720.19;;;3.52;100.00
35226;BME280;21813;49.686;21.766;2023-01-16T14:27:14;96726.78;;;3.56;100.00
35226;BME280;21813;49.686;21.766;2023-01-16T14:29:57;96723.50;;;3.54;100.00
35226;BME280;21813;49.686;21.766;2023-01-16T14:32:33;96720.91;;;3.54;100.00
35226;BME280;21813;49.686;21.766;2023-01-16T14:37:40;96708.03;;;3.54;100.00
35226;BME280;21813;49.686;21.766;2023-01-16T14:45:29;96698.44;;;3.56;100.00
35226;BME280;21813;49.686;21.766;2023-01-16T14:51:18;96706.97;;;3.56;100.00
35226;BME280;21813;49.686;21.766;2023-01-16T14:54:08;96696.66;;;3.56;100.00
35226;BME280;21813;49.686;21.766;2023-01-16T14:56:59;96695.88;;;3.56;100.00
35226;BME280;21813;49.686;21.766;2023-01-16T14:59:32;96692.59;;;3.54;100.00
35226;BME280;21813;49.686;21.766;2023-01-16T15:04:59;96688.25;;;3.54;100.00
35226;BME280;21813;49.686;21.766;2023-01-16T15:10:06;96691.75;;;3.53;100.00
35226;BME280;21813;49.686;21.766;2023-01-16T15:12:37;96680.63;;;3.53;100.00
35226;BME280;21813;49.686;21.766;2023-01-16T15:15:04;96689.91;;;3.55;100.00
35226;BME280;21813;49.686;21.766;2023-01-16T15:17:34;96677.34;;;3.62;100.00
35226;BME280;21813;49.686;21.766;2023-01-16T15:20:23;96682.50;;;3.62;100.00
35226;BME280;21813;49.686;21.766;2023-01-16T15:33:43;96653.75;;;3.46;100.00
35226;BME280;21813;49.686;21.766;2023-01-16T15:36:19;96648.59;;;3.46;100.00
35226;BME280;21813;49.686;21.766;2023-01-16T15:38:56;96645.19;;;3.45;100.00
35226;BME280;21813;49.686;21.766;2023-01-16T15:41:29;96640.97;;;3.44;100.00
35226;BME280;21813;49.686;21.766;2023-01-16T15:44:16;96636.66;;;3.45;100.00
35226;BME280;21813;49.686;21.766;2023-01-16T15:52:34;96628.00;;;3.46;100.00
35226;BME280;21813;49.686;21.766;2023-01-16T15:55:26;96615.22;;;3.44;100.00
35226;BME280;21813;49.686;21.766;2023-01-16T15:57:58;96607.50;;;3.44;100.00
35226;BME280;21813;49.686;21.766;2023-01-16T16:00:35;96602.47;;;3.43;100.00
35226;BME280;21813;49.686;21.766;2023-01-16T16:03:13;96596.38;;;3.44;100.00
35226;BME280;21813;49.686;21.766;2023-01-16T16:05:43;96595.44;;;3.45;100.00
35226;BME280;21813;49.686;21.766;2023-01-16T16:08:20;96591.22;;;3.44;100.00
35226;BME280;21813;49.686;21.766;2023-01-16T16:10:48;96591.59;;;3.39;100.00
35226;BME280;21813;49.686;21.766;2023-01-16T16:13:34;96593.81;;;3.44;100.00
35226;BME280;21813;49.686;21.766;2023-01-16T16:16:14;96586.09;;;3.44;100.00
35226;BME280;21813;49.686;21.766;2023-01-16T16:19:02;96584.31;;;3.44;100.00
35226;BME280;21813;49.686;21.766;2023-01-16T16:22:00;96578.25;;;3.45;100.00
35226;BME280;21813;49.686;21.766;2023-01-16T16:24:45;96581.63;;;3.46;100.00